Observations for TORINO CASELLE, Italy (LIMF)

LIMF 191950Z 33003KT 300V360 6000 SCT006 BKN015 15/14 Q1015 
LIMF 191920Z 34004KT 6000 -DZ BKN007 BKN018 15/14 Q1015 
LIMF 191850Z 34003KT 310V010 4000 -DZ BR BKN006 BKN018 15/14 Q1015  
LIMF 191820Z 34004KT 300V360 4000 -DZ BR BKN005 BKN030 15/14 Q1015  
LIMF 191750Z 33004KT 4000 BR BKN005 OVC030 15/14 Q1015  
LIMF 191720Z 01004KT 4000 BR BKN005 OVC020 15/14 Q1015 REDZ 
LIMF 191650Z 36004KT 2500 DZ BR BKN004 OVC020 15/14 Q1015   
LIMF 191620Z 02003KT 2500 DZ BR BKN004 OVC020 15/14 Q1015   
LIMF 191550Z 02004KT 2000 DZ BR BKN003 OVC020 15/14 Q1014   
LIMF 191520Z 06005KT 2000 DZ BR BKN003 OVC010 15/14 Q1014   
LIMF 191450Z 05004KT 010V070 2000 DZ BR BKN003 OVC015 15/15 Q1014   
LIMF 191420Z 06004KT 2500 DZ BR BKN005 OVC020 15/14 Q1015   
LIMF 191350Z 09006KT 6000 BKN012 OVC040 15/14 Q1015 
LIMF 191320Z 07006KT 6000 BKN012 OVC040 16/14 Q1015 
LIMF 191250Z 06005KT 6000 BKN012 OVC040 16/14 Q1014 
LIMF 191220Z 06005KT 030V090 6000 BKN015 OVC040 16/14 Q1015 
LIMF 191150Z 06004KT 030V090 6000 BKN010 OVC025 16/14 Q1015 
LIMF 191120Z 06004KT 6000 BKN010 OVC025 16/14 Q1015 
LIMF 191050Z 06004KT 030V110 4000 BR SCT007 OVC020 16/15 Q1015  
LIMF 191020Z 01004KT 4000 BR BKN007 BKN020 15/14 Q1015  
LIMF 190950Z 03003KT 360V060 4000 BR BKN007 OVC020 15/14 Q1015  
LIMF 190920Z 04004KT 2200 -RA BR BKN007 OVC020 15/14 Q1015  
LIMF 190850Z 05003KT 010V080 3000 -RA BKN007 OVC020 15/14 Q1015 
LIMF 190820Z 36003KT 3000 BR BKN007 OVC015 15/13 Q1015  
LIMF 190750Z 01003KT 3000 BR BKN007 BKN015 15/14 Q1015  
LIMF 190720Z 30004KT 3000 BR SCT007 OVC015 14/13 Q1015  
LIMF 190650Z 33005KT 3000 BR SCT007 OVC015 14/13 Q1015  
LIMF 190620Z 32005KT 3000 BR SCT007 OVC020 14/13 Q1014  
LIMF 190550Z 32004KT 2000 -RADZ BKN009 OVC020 14/14 Q1014   
LIMF 190520Z 34004KT 2000 -RADZ BKN003 OVC006 14/14 Q1015   
LIMF 190450Z 03003KT 360V070 2200 -DZ BR BKN003 14/14 Q1015 
LIMF 190420Z 36003KT 330V030 4000 1800SE BR VCFG OVC004 14/14 Q1014 
LIMF 190350Z 34003KT 3500 -DZ BKN004 14/14 Q1014 REDZ RERA  
LIMF 190320Z 36003KT 1600 DZRA BKN003 14/14 Q1015   
LIMF 190250Z VRB02KT 1400 R36/P1500N DZRA OVC003 14/14 Q1015
LIMF 190220Z VRB01KT 1200 R36/P1500N DZ BKN003 14/14 Q1015  
LIMF 190150Z VRB01KT 1800 DZ BKN003 14/14 Q1015 RERA
LIMF 190120Z 02003KT 1800 DZRA OVC003 14/14 Q1015   
LIMF 190050Z 36003KT 2000 DZRA OVC004 14/14 Q1016   
LIMF 190020Z 05002KT 2500 DZRA OVC004 15/14 Q1016   
LIMF 182350Z 03003KT 4500 -DZ BKN004 14/14 Q1016
LIMF 182320Z 03003KT 8000 BKN008 15/13 Q1016
LIMF 182250Z 02003KT 8000 BKN018 15/13 Q1016
LIMF 182220Z 01003KT 8000 BKN020 15/13 Q1016
LIMF 182150Z 34004KT 8000 BKN018 BKN032 15/13 Q1017 
LIMF 182120Z 34003KT 8000 BKN020 BKN040 15/13 Q1017 
LIMF 182050Z 35004KT 8000 SCT018 BKN035 15/13 Q1017 
LIMF 182020Z 35003KT 7000 BKN018 15/13 Q1017
LIMF 181950Z 35004KT 7000 SCT018 BKN040 15/13 Q1017 
LIMF 181920Z 36003KT 8000 FEW018 BKN045 15/13 Q1017